createdAt,value
2022-11-05T00:00:41.299Z,999.41
2022-11-05T00:01:41.530Z,999.43
2022-11-05T00:02:41.293Z,999.43
2022-11-05T00:03:41.328Z,999.48
2022-11-05T00:04:41.241Z,999.46
2022-11-05T00:05:48.708Z,999.48
2022-11-05T00:06:41.195Z,999.53
2022-11-05T00:07:41.240Z,999.54
2022-11-05T00:08:41.439Z,999.53
2022-11-05T00:09:41.190Z,999.53
2022-11-05T00:10:41.164Z,999.55
2022-11-05T00:11:41.171Z,999.54
2022-11-05T00:12:41.172Z,999.57
2022-11-05T00:13:41.411Z,999.61
2022-11-05T00:14:41.137Z,999.61
2022-11-05T00:15:48.255Z,999.59
2022-11-05T00:16:44.403Z,999.59
2022-11-05T00:17:41.097Z,999.64
2022-11-05T00:18:41.326Z,999.62
2022-11-05T00:19:41.117Z,999.60
2022-11-05T00:20:41.303Z,999.60
2022-11-05T00:21:41.067Z,999.60
2022-11-05T00:22:41.048Z,999.61
2022-11-05T00:23:42.088Z,999.64
2022-11-05T00:24:41.038Z,999.64
2022-11-05T00:25:41.008Z,999.64
2022-11-05T00:26:41.257Z,999.69
2022-11-05T00:27:40.994Z,999.66
2022-11-05T00:28:44.076Z,999.72
2022-11-05T00:29:40.991Z,999.70
2022-11-05T00:30:40.963Z,999.72
2022-11-05T00:31:40.946Z,999.73
2022-11-05T00:32:40.962Z,999.72
2022-11-05T00:33:43.967Z,999.77
2022-11-05T00:34:40.937Z,999.75
2022-11-05T00:35:40.899Z,999.77
2022-11-05T00:36:43.951Z,999.77
2022-11-05T00:37:47.164Z,999.81
2022-11-05T00:38:41.879Z,999.79
2022-11-05T00:39:40.887Z,999.83
2022-11-05T00:40:40.882Z,999.85
2022-11-05T00:41:43.880Z,999.82
2022-11-05T00:42:43.856Z,999.84
2022-11-05T00:43:42.067Z,999.80
2022-11-05T00:44:41.071Z,999.83
2022-11-05T00:45:41.038Z,999.84
2022-11-05T00:46:41.801Z,999.87
2022-11-05T00:47:41.802Z,999.82
2022-11-05T00:48:40.771Z,999.88
2022-11-05T00:49:48.078Z,999.86
2022-11-05T00:50:40.993Z,999.86
2022-11-05T00:51:40.740Z,999.87
2022-11-05T00:52:41.994Z,999.92
2022-11-05T00:53:43.768Z,999.91
2022-11-05T00:54:41.711Z,999.90
2022-11-05T00:55:40.719Z,999.90
2022-11-05T00:56:40.949Z,999.90
2022-11-05T00:57:40.669Z,999.93
2022-11-05T00:58:40.680Z,999.90
2022-11-05T00:59:40.662Z,999.93
2022-11-05T01:00:40.647Z,999.96
2022-11-05T01:01:40.718Z,999.98
2022-11-05T01:02:43.757Z,999.98
2022-11-05T01:03:44.152Z,1000.01
2022-11-05T01:04:41.605Z,999.99
2022-11-05T01:05:40.822Z,999.97
2022-11-05T01:06:40.824Z,1000.00
2022-11-05T01:07:40.572Z,1000.05
2022-11-05T01:08:40.551Z,1000.07
2022-11-05T01:09:40.775Z,1000.04
2022-11-05T01:10:41.837Z,1000.13
2022-11-05T01:11:40.555Z,1000.12
2022-11-05T01:12:40.517Z,1000.14
2022-11-05T01:13:40.550Z,1000.13
2022-11-05T01:14:40.491Z,1000.12
2022-11-05T01:15:40.482Z,1000.10
2022-11-05T01:16:40.768Z,1000.15
2022-11-05T01:17:47.862Z,1000.07
2022-11-05T01:18:40.706Z,1000.13
2022-11-05T01:20:02.687Z,1000.09
2022-11-05T01:20:40.428Z,1000.13
2022-11-05T01:21:40.679Z,1000.11
2022-11-05T01:22:40.647Z,1000.17
2022-11-05T01:23:40.411Z,1000.19
2022-11-05T01:24:40.398Z,1000.18
2022-11-05T01:25:40.380Z,1000.17
2022-11-05T01:26:43.417Z,1000.21
2022-11-05T01:27:40.403Z,1000.20
2022-11-05T01:28:40.659Z,1000.19
2022-11-05T01:29:40.337Z,1000.20
2022-11-05T01:30:40.566Z,1000.23
2022-11-05T01:31:40.579Z,1000.18
2022-11-05T01:32:40.347Z,1000.23
2022-11-05T01:33:40.578Z,1000.25
2022-11-05T01:34:40.302Z,1000.28
2022-11-05T01:35:41.326Z,1000.28
2022-11-05T01:36:40.276Z,1000.29
2022-11-05T01:37:40.277Z,1000.29
2022-11-05T01:38:40.281Z,1000.31
2022-11-05T01:39:40.233Z,1000.29
2022-11-05T01:40:40.219Z,1000.32
2022-11-05T01:41:40.458Z,1000.32
2022-11-05T01:42:40.418Z,1000.35
2022-11-05T01:43:40.235Z,1000.33
2022-11-05T01:44:40.191Z,1000.36
2022-11-05T01:45:40.393Z,1000.35
2022-11-05T01:46:40.146Z,1000.40
2022-11-05T01:47:41.180Z,1000.43
2022-11-05T01:48:40.381Z,1000.41
2022-11-05T01:49:40.372Z,1000.42
2022-11-05T01:50:40.114Z,1000.39
2022-11-05T01:51:40.111Z,1000.42
2022-11-05T01:52:40.119Z,1000.42
2022-11-05T01:53:40.119Z,1000.40
2022-11-05T01:54:40.427Z,1000.41
2022-11-05T01:55:41.087Z,1000.43
2022-11-05T01:56:43.090Z,1000.43
2022-11-05T01:57:41.077Z,1000.44
2022-11-05T01:58:40.312Z,1000.44
2022-11-05T01:59:40.258Z,1000.39
2022-11-05T02:00:40.028Z,1000.43
2022-11-05T02:02:08.511Z,1000.48
2022-11-05T02:02:41.148Z,1000.47
2022-11-05T02:03:40.236Z,1000.50
2022-11-05T02:04:40.219Z,1000.51
2022-11-05T02:05:39.991Z,1000.51
2022-11-05T02:06:55.431Z,1000.53
2022-11-05T02:07:40.191Z,1000.56
2022-11-05T02:08:42.951Z,1000.56
2022-11-05T02:09:39.933Z,1000.53
2022-11-05T02:10:42.939Z,1000.56
2022-11-05T02:11:40.149Z,1000.57
2022-11-05T02:12:39.905Z,1000.52
2022-11-05T02:13:39.873Z,1000.54
2022-11-05T02:14:55.169Z,1000.55
2022-11-05T02:15:39.914Z,1000.57
2022-11-05T02:16:39.847Z,1000.58
2022-11-05T02:17:40.867Z,1000.61
2022-11-05T02:18:42.853Z,1000.58
2022-11-05T02:19:39.839Z,1000.62
2022-11-05T02:20:40.835Z,1000.59
2022-11-05T02:21:40.026Z,1000.61
2022-11-05T02:22:39.795Z,1000.56
2022-11-05T02:23:40.017Z,1000.59
2022-11-05T02:24:40.766Z,1000.56
2022-11-05T02:25:39.984Z,1000.58
2022-11-05T02:26:39.980Z,1000.60
2022-11-05T02:27:39.727Z,1000.60
2022-11-05T02:28:42.736Z,1000.64
2022-11-05T02:29:39.710Z,1000.61
2022-11-05T02:30:39.715Z,1000.63
2022-11-05T02:31:39.703Z,1000.64
2022-11-05T02:32:42.699Z,1000.67
2022-11-05T02:33:39.664Z,1000.68
2022-11-05T02:34:42.923Z,1000.68
2022-11-05T02:35:39.886Z,1000.69
2022-11-05T02:36:39.675Z,1000.69
2022-11-05T02:37:39.647Z,1000.68
2022-11-05T02:38:39.615Z,1000.69
2022-11-05T02:39:42.647Z,1000.71
2022-11-05T02:40:40.627Z,1000.70
2022-11-05T02:41:54.854Z,1000.73
2022-11-05T02:42:39.837Z,1000.76
2022-11-05T02:43:40.805Z,1000.74
2022-11-05T02:44:40.585Z,1000.75
2022-11-05T02:45:39.788Z,1000.76
2022-11-05T02:46:39.766Z,1000.77
2022-11-05T02:47:39.540Z,1000.72
2022-11-05T02:48:39.536Z,1000.79
2022-11-05T02:49:39.492Z,1000.76
2022-11-05T02:50:39.509Z,1000.82
2022-11-05T02:51:39.481Z,1000.81
2022-11-05T02:52:39.499Z,1000.84
2022-11-05T02:53:39.467Z,1000.80
2022-11-05T02:54:39.432Z,1000.81
2022-11-05T02:55:40.699Z,1000.81
2022-11-05T02:56:40.667Z,1000.80
2022-11-05T02:57:39.665Z,1000.81
2022-11-05T02:58:39.638Z,1000.78
2022-11-05T02:59:39.389Z,1000.77
2022-11-05T03:00:39.412Z,1000.73
2022-11-05T03:01:39.523Z,1000.79
2022-11-05T03:02:39.477Z,1000.75
2022-11-05T03:03:54.760Z,1000.78
2022-11-05T03:04:39.578Z,1000.76
2022-11-05T03:05:42.586Z,1000.78
2022-11-05T03:06:39.326Z,1000.76
2022-11-05T03:07:39.562Z,1000.79
2022-11-05T03:08:39.551Z,1000.77
2022-11-05T03:09:39.277Z,1000.80
2022-11-05T03:10:39.317Z,1000.72
2022-11-05T03:11:54.994Z,1000.78
2022-11-05T03:12:39.264Z,1000.81
2022-11-05T03:13:39.545Z,1000.78
2022-11-05T03:14:39.244Z,1000.83
2022-11-05T03:15:40.239Z,1000.87
2022-11-05T03:16:39.213Z,1000.87
2022-11-05T03:17:40.227Z,1000.90
2022-11-05T03:18:39.244Z,1000.91
2022-11-05T03:19:39.193Z,1000.92
2022-11-05T03:20:39.181Z,1000.90
2022-11-05T03:21:39.149Z,1000.93
2022-11-05T03:22:40.203Z,1000.95
2022-11-05T03:23:39.422Z,1000.97
2022-11-05T03:24:39.351Z,1000.99
2022-11-05T03:25:39.132Z,1001.01
2022-11-05T03:26:39.119Z,1001.02
2022-11-05T03:27:39.219Z,1000.99
2022-11-05T03:28:39.364Z,1001.05
2022-11-05T03:29:42.102Z,1001.08
2022-11-05T03:30:42.113Z,1001.08
2022-11-05T03:31:40.089Z,1001.08
2022-11-05T03:32:39.057Z,1001.12
2022-11-05T03:33:39.271Z,1001.12
2022-11-05T03:34:39.253Z,1001.11
2022-11-05T03:35:42.060Z,1001.14
2022-11-05T03:36:39.280Z,1001.15
2022-11-05T03:37:38.982Z,1001.15
2022-11-05T03:38:38.992Z,1001.17
2022-11-05T03:39:38.985Z,1001.17
2022-11-05T03:40:38.974Z,1001.21
2022-11-05T03:41:39.984Z,1001.23
2022-11-05T03:42:40.196Z,1001.23
2022-11-05T03:43:38.979Z,1001.25
2022-11-05T03:44:39.149Z,1001.24
2022-11-05T03:45:38.938Z,1001.28
2022-11-05T03:46:38.896Z,1001.26
2022-11-05T03:47:38.883Z,1001.29
2022-11-05T03:48:38.968Z,1001.28
2022-11-05T03:50:00.119Z,1001.33
2022-11-05T03:50:42.145Z,1001.28
2022-11-05T03:51:40.086Z,1001.28
2022-11-05T03:52:38.831Z,1001.30
2022-11-05T03:53:38.868Z,1001.32
2022-11-05T03:54:38.806Z,1001.37
2022-11-05T03:55:45.896Z,1001.42
2022-11-05T03:56:39.814Z,1001.42
2022-11-05T03:57:39.015Z,1001.46
2022-11-05T03:58:38.811Z,1001.47
2022-11-05T03:59:38.983Z,1001.50
2022-11-05T04:00:38.754Z,1001.51
2022-11-05T04:01:38.829Z,1001.49
2022-11-05T04:02:46.048Z,1001.51
2022-11-05T04:03:38.967Z,1001.54
2022-11-05T04:04:39.976Z,1001.56
2022-11-05T04:05:38.691Z,1001.56
2022-11-05T04:06:38.700Z,1001.59
2022-11-05T04:07:38.667Z,1001.57
2022-11-05T04:08:38.685Z,1001.60
2022-11-05T04:09:38.659Z,1001.61
2022-11-05T04:10:38.641Z,1001.63
2022-11-05T04:11:41.661Z,1001.65
2022-11-05T04:12:38.617Z,1001.67
2022-11-05T04:13:38.842Z,1001.67
2022-11-05T04:14:38.626Z,1001.67
2022-11-05T04:15:45.746Z,1001.64
2022-11-05T04:16:39.597Z,1001.68
2022-11-05T04:18:02.847Z,1001.66
2022-11-05T04:18:39.623Z,1001.68
2022-11-05T04:19:38.566Z,1001.69
2022-11-05T04:20:38.783Z,1001.69
2022-11-05T04:21:38.572Z,1001.72
2022-11-05T04:22:38.522Z,1001.67
2022-11-05T04:23:39.791Z,1001.71
2022-11-05T04:24:38.499Z,1001.69
2022-11-05T04:25:38.507Z,1001.70
2022-11-05T04:26:38.474Z,1001.68
2022-11-05T04:27:41.517Z,1001.67
2022-11-05T04:28:38.450Z,1001.68
2022-11-05T04:29:39.461Z,1001.72
2022-11-05T04:30:38.492Z,1001.72
2022-11-05T04:31:38.663Z,1001.73
2022-11-05T04:32:39.408Z,1001.71
2022-11-05T04:33:41.665Z,1001.79
2022-11-05T04:34:38.396Z,1001.80
2022-11-05T04:35:38.635Z,1001.81
2022-11-05T04:36:41.411Z,1001.79
2022-11-05T04:37:41.398Z,1001.80
2022-11-05T04:38:38.582Z,1001.78
2022-11-05T04:39:38.347Z,1001.86
2022-11-05T04:40:38.332Z,1001.81
2022-11-05T04:41:38.363Z,1001.83
2022-11-05T04:42:38.301Z,1001.83
2022-11-05T04:43:38.323Z,1001.84
2022-11-05T04:44:41.322Z,1001.85
2022-11-05T04:45:38.311Z,1001.88
2022-11-05T04:46:38.258Z,1001.85
2022-11-05T04:47:38.490Z,1001.87
2022-11-05T04:48:38.244Z,1001.82
2022-11-05T04:49:39.255Z,1001.87
2022-11-05T04:50:38.213Z,1001.82
2022-11-05T04:51:38.252Z,1001.85
2022-11-05T04:52:38.194Z,1001.82
2022-11-05T04:53:39.250Z,1001.82
2022-11-05T04:54:38.170Z,1001.83
2022-11-05T04:55:39.177Z,1001.84
2022-11-05T04:56:38.184Z,1001.86
2022-11-05T04:57:38.396Z,1001.85
2022-11-05T04:58:38.372Z,1001.86
2022-11-05T04:59:45.318Z,1001.87
2022-11-05T05:00:38.180Z,1001.88
2022-11-05T05:01:38.248Z,1001.89
2022-11-05T05:02:38.363Z,1001.88
2022-11-05T05:03:38.328Z,1001.91
2022-11-05T05:04:38.069Z,1001.87
2022-11-05T05:05:39.111Z,1001.87
2022-11-05T05:06:38.291Z,1001.90
2022-11-05T05:07:38.039Z,1001.88
2022-11-05T05:08:38.035Z,1001.91
2022-11-05T05:09:38.026Z,1001.91
2022-11-05T05:10:38.032Z,1001.98
2022-11-05T05:11:59.014Z,1001.95
2022-11-05T05:12:37.995Z,1001.99
2022-11-05T05:13:37.985Z,1001.97
2022-11-05T05:14:37.969Z,1002.02
2022-11-05T05:15:37.965Z,1001.99
2022-11-05T05:16:38.192Z,1002.00
2022-11-05T05:17:37.928Z,1002.00
2022-11-05T05:18:40.988Z,1002.05
2022-11-05T05:19:40.188Z,1002.06
2022-11-05T05:20:38.168Z,1002.09
2022-11-05T05:21:37.898Z,1002.05
2022-11-05T05:22:40.920Z,1002.12
2022-11-05T05:23:37.878Z,1002.10
2022-11-05T05:24:37.895Z,1002.11
2022-11-05T05:25:37.857Z,1002.07
2022-11-05T05:26:37.838Z,1002.12
2022-11-05T05:27:37.847Z,1002.14
2022-11-05T05:28:37.824Z,1002.13
2022-11-05T05:29:38.047Z,1002.15
2022-11-05T05:30:37.818Z,1002.13
2022-11-05T05:31:37.803Z,1002.18
2022-11-05T05:32:38.019Z,1002.19
2022-11-05T05:33:37.772Z,1002.19
2022-11-05T05:34:37.759Z,1002.18
2022-11-05T05:35:37.787Z,1002.18
2022-11-05T05:36:37.759Z,1002.17
2022-11-05T05:37:37.968Z,1002.20
2022-11-05T05:38:37.942Z,1002.17
2022-11-05T05:39:37.710Z,1002.16
2022-11-05T05:40:37.772Z,1002.20
2022-11-05T05:41:37.692Z,1002.18
2022-11-05T05:42:42.907Z,1002.15
2022-11-05T05:43:39.898Z,1002.13
2022-11-05T05:44:37.662Z,1002.12
2022-11-05T05:45:38.653Z,1002.17
2022-11-05T05:46:37.667Z,1002.13
2022-11-05T05:47:37.632Z,1002.17
2022-11-05T05:48:38.642Z,1002.16
2022-11-05T05:49:37.612Z,1002.18
2022-11-05T05:50:37.610Z,1002.21
2022-11-05T05:51:37.616Z,1002.21
2022-11-05T05:52:37.597Z,1002.22
2022-11-05T05:53:37.583Z,1002.22
2022-11-05T05:54:42.445Z,1002.22
2022-11-05T05:55:38.541Z,1002.28
2022-11-05T05:56:37.534Z,1002.33
2022-11-05T05:57:37.547Z,1002.36
2022-11-05T05:58:44.948Z,1002.35
2022-11-05T05:59:37.723Z,1002.35
2022-11-05T06:00:37.519Z,1002.43
2022-11-05T06:01:37.817Z,1002.36
2022-11-05T06:02:37.823Z,1002.46
2022-11-05T06:03:44.750Z,1002.42
2022-11-05T06:04:37.463Z,1002.42
2022-11-05T06:05:37.449Z,1002.45
2022-11-05T06:06:37.456Z,1002.48
2022-11-05T06:07:38.436Z,1002.50
2022-11-05T06:08:37.445Z,1002.49
2022-11-05T06:09:37.623Z,1002.52
2022-11-05T06:10:37.441Z,1002.55
2022-11-05T06:11:37.374Z,1002.54
2022-11-05T06:12:37.373Z,1002.54
2022-11-05T06:13:37.377Z,1002.57
2022-11-05T06:14:37.618Z,1002.60
2022-11-05T06:15:37.552Z,1002.57
2022-11-05T06:16:37.557Z,1002.61
2022-11-05T06:17:37.325Z,1002.60
2022-11-05T06:18:37.310Z,1002.61
2022-11-05T06:19:37.288Z,1002.63
2022-11-05T06:20:37.283Z,1002.63
2022-11-05T06:21:52.523Z,1002.62
2022-11-05T06:22:37.523Z,1002.62
2022-11-05T06:23:38.515Z,1002.64
2022-11-05T06:24:40.287Z,1002.68
2022-11-05T06:25:41.188Z,1002.67
2022-11-05T06:26:52.563Z,1002.70
2022-11-05T06:27:40.244Z,1002.70
2022-11-05T06:28:37.211Z,1002.69
2022-11-05T06:29:37.164Z,1002.68
2022-11-05T06:30:37.180Z,1002.73
2022-11-05T06:31:40.208Z,1002.72
2022-11-05T06:32:37.404Z,1002.71
2022-11-05T06:33:37.399Z,1002.70
2022-11-05T06:34:40.183Z,1002.73
2022-11-05T06:35:37.118Z,1002.72
2022-11-05T06:36:37.133Z,1002.73
2022-11-05T06:37:37.094Z,1002.78
2022-11-05T06:38:37.109Z,1002.78
2022-11-05T06:39:37.086Z,1002.81
2022-11-05T06:40:37.287Z,1002.80
2022-11-05T06:41:56.873Z,1002.81
2022-11-05T06:42:38.064Z,1002.86
2022-11-05T06:43:37.041Z,1002.92
2022-11-05T06:44:37.028Z,1002.91
2022-11-05T06:45:37.009Z,1002.95
2022-11-05T06:46:37.234Z,1003.00
2022-11-05T06:47:40.030Z,1002.99
2022-11-05T06:48:37.241Z,1003.06
2022-11-05T06:49:37.992Z,1003.07
2022-11-05T06:50:37.195Z,1003.12
2022-11-05T06:51:44.476Z,1003.13
2022-11-05T06:52:41.012Z,1003.13
2022-11-05T06:53:37.183Z,1003.15
2022-11-05T06:54:36.955Z,1003.16
2022-11-05T06:55:36.912Z,1003.18
2022-11-05T06:56:44.234Z,1003.19
2022-11-05T06:57:37.131Z,1003.23
2022-11-05T06:58:37.375Z,1003.19
2022-11-05T06:59:36.888Z,1003.22
2022-11-05T07:00:37.917Z,1003.31
2022-11-05T07:01:37.022Z,1003.29
2022-11-05T07:02:39.851Z,1003.32
2022-11-05T07:03:36.818Z,1003.35
2022-11-05T07:04:37.077Z,1003.32
2022-11-05T07:05:36.802Z,1003.38
2022-11-05T07:06:37.261Z,1003.39
2022-11-05T07:07:37.820Z,1003.43
2022-11-05T07:08:36.772Z,1003.45
2022-11-05T07:09:36.768Z,1003.48
2022-11-05T07:10:39.790Z,1003.50
2022-11-05T07:11:40.011Z,1003.51
2022-11-05T07:12:37.741Z,1003.53
2022-11-05T07:13:39.763Z,1003.57
2022-11-05T07:14:36.779Z,1003.59
2022-11-05T07:15:36.758Z,1003.60
2022-11-05T07:16:36.700Z,1003.61
2022-11-05T07:17:36.902Z,1003.59
2022-11-05T07:18:36.664Z,1003.65
2022-11-05T07:19:36.683Z,1003.64
2022-11-05T07:20:36.661Z,1003.63
2022-11-05T07:21:36.864Z,1003.64
2022-11-05T07:22:36.620Z,1003.72
2022-11-05T07:23:36.635Z,1003.74
2022-11-05T07:24:36.854Z,1003.71
2022-11-05T07:25:36.627Z,1003.74
2022-11-05T07:26:36.576Z,1003.72
2022-11-05T07:27:36.921Z,1003.79
2022-11-05T07:28:36.586Z,1003.83
2022-11-05T07:29:36.806Z,1003.84
2022-11-05T07:30:36.774Z,1003.90
2022-11-05T07:31:36.548Z,1003.93
2022-11-05T07:32:36.523Z,1003.91
2022-11-05T07:33:36.897Z,1003.93
2022-11-05T07:34:36.518Z,1004.00
2022-11-05T07:35:36.721Z,1003.96
2022-11-05T07:36:36.505Z,1003.98
2022-11-05T07:37:36.711Z,1003.94
2022-11-05T07:38:36.478Z,1003.95
2022-11-05T07:39:36.467Z,1003.93
2022-11-05T07:40:36.434Z,1003.94
2022-11-05T07:41:36.687Z,1003.94
2022-11-05T07:42:36.417Z,1003.92
2022-11-05T07:43:36.633Z,1003.98
2022-11-05T07:44:39.668Z,1003.99
2022-11-05T07:45:36.374Z,1003.98
2022-11-05T07:46:36.657Z,1004.00
2022-11-05T07:47:37.382Z,1004.00
2022-11-05T07:48:36.582Z,1004.03
2022-11-05T07:49:36.347Z,1004.06
2022-11-05T07:50:36.339Z,1004.07
2022-11-05T07:51:43.547Z,1004.08
2022-11-05T07:52:36.338Z,1004.10
2022-11-05T07:53:39.752Z,1004.08
2022-11-05T07:54:37.288Z,1004.11
2022-11-05T07:55:36.269Z,1004.14
2022-11-05T07:56:36.519Z,1004.14
2022-11-05T07:57:36.269Z,1004.19
2022-11-05T07:58:51.605Z,1004.22
2022-11-05T07:59:39.486Z,1004.20
2022-11-05T08:00:39.375Z,1004.23
2022-11-05T08:01:39.646Z,1004.22
2022-11-05T08:02:36.421Z,1004.23
2022-11-05T08:03:37.271Z,1004.27
2022-11-05T08:04:36.181Z,1004.31
2022-11-05T08:05:37.208Z,1004.37
2022-11-05T08:06:51.571Z,1004.37
2022-11-05T08:07:36.381Z,1004.39
2022-11-05T08:08:36.358Z,1004.44
2022-11-05T08:09:36.361Z,1004.42
2022-11-05T08:10:39.176Z,1004.42
2022-11-05T08:11:43.634Z,1004.43
2022-11-05T08:12:36.123Z,1004.39
2022-11-05T08:13:43.443Z,1004.41
2022-11-05T08:14:39.352Z,1004.46
2022-11-05T08:15:37.297Z,1004.49
2022-11-05T08:16:43.431Z,1004.46
2022-11-05T08:17:36.054Z,1004.52
2022-11-05T08:18:36.315Z,1004.53
2022-11-05T08:19:39.047Z,1004.49
2022-11-05T08:20:36.022Z,1004.47
2022-11-05T08:21:36.032Z,1004.54
2022-11-05T08:22:43.340Z,1004.45
2022-11-05T08:23:36.213Z,1004.45
2022-11-05T08:24:36.247Z,1004.48
2022-11-05T08:25:35.971Z,1004.48
2022-11-05T08:26:36.212Z,1004.48
2022-11-05T08:27:36.162Z,1004.54
2022-11-05T08:28:35.955Z,1004.49
2022-11-05T08:29:35.969Z,1004.53
2022-11-05T08:30:36.143Z,1004.52
2022-11-05T08:31:35.907Z,1004.55
2022-11-05T08:32:35.896Z,1004.53
2022-11-05T08:33:36.158Z,1004.52
2022-11-05T08:34:35.881Z,1004.53
2022-11-05T08:35:35.854Z,1004.53
2022-11-05T08:36:36.088Z,1004.52
2022-11-05T08:37:36.054Z,1004.54
2022-11-05T08:38:36.090Z,1004.54
2022-11-05T08:39:35.804Z,1004.52
2022-11-05T08:40:35.817Z,1004.56
2022-11-05T08:41:35.798Z,1004.56
2022-11-05T08:42:35.784Z,1004.59
2022-11-05T08:43:35.800Z,1004.60
2022-11-05T08:44:36.790Z,1004.58
2022-11-05T08:45:38.762Z,1004.62
2022-11-05T08:46:41.257Z,1004.60
2022-11-05T08:47:36.726Z,1004.60
2022-11-05T08:48:35.990Z,1004.62
2022-11-05T08:49:35.985Z,1004.63
2022-11-05T08:50:35.927Z,1004.63
2022-11-05T08:51:35.693Z,1004.68
2022-11-05T08:52:36.717Z,1004.67
2022-11-05T08:53:35.656Z,1004.66
2022-11-05T08:54:35.665Z,1004.70
2022-11-05T08:55:35.668Z,1004.67
2022-11-05T08:56:35.655Z,1004.69
2022-11-05T08:57:35.627Z,1004.69
2022-11-05T08:58:35.606Z,1004.65
2022-11-05T08:59:36.620Z,1004.67
2022-11-05T09:00:35.588Z,1004.70
2022-11-05T09:01:36.006Z,1004.70
2022-11-05T09:02:36.889Z,1004.68
2022-11-05T09:03:36.811Z,1004.69
2022-11-05T09:04:35.778Z,1004.71
2022-11-05T09:05:35.538Z,1004.75
2022-11-05T09:06:35.587Z,1004.72
2022-11-05T09:07:36.559Z,1004.72
2022-11-05T09:08:35.503Z,1004.67
2022-11-05T09:09:35.489Z,1004.74
2022-11-05T09:10:36.539Z,1004.76
2022-11-05T09:12:05.266Z,1004.69
2022-11-05T09:12:36.480Z,1004.67
2022-11-05T09:13:36.495Z,1004.66
2022-11-05T09:14:35.443Z,1004.67
2022-11-05T09:15:36.487Z,1004.71
2022-11-05T09:16:35.920Z,1004.75
2022-11-05T09:17:35.638Z,1004.74
2022-11-05T09:18:35.634Z,1004.69
2022-11-05T09:19:39.652Z,1004.72
2022-11-05T09:20:36.402Z,1004.67
2022-11-05T09:21:35.619Z,1004.70
2022-11-05T09:22:43.067Z,1004.70
2022-11-05T09:23:36.599Z,1004.68
2022-11-05T09:24:36.367Z,1004.72
2022-11-05T09:25:38.370Z,1004.72
2022-11-05T09:26:35.584Z,1004.76
2022-11-05T09:27:35.536Z,1004.73
2022-11-05T09:28:35.527Z,1004.73
2022-11-05T09:29:35.310Z,1004.72
2022-11-05T09:30:38.520Z,1004.74
2022-11-05T09:31:35.267Z,1004.76
2022-11-05T09:32:35.274Z,1004.80
2022-11-05T09:33:38.280Z,1004.78
2022-11-05T09:34:35.230Z,1004.72
2022-11-05T09:35:35.221Z,1004.71
2022-11-05T09:36:35.465Z,1004.75
2022-11-05T09:37:35.457Z,1004.73
2022-11-05T09:38:50.613Z,1004.75
2022-11-05T09:39:35.197Z,1004.74
2022-11-05T09:40:35.170Z,1004.80
2022-11-05T09:41:35.418Z,1004.88
2022-11-05T09:42:38.389Z,1004.87
2022-11-05T09:43:35.358Z,1004.89
2022-11-05T09:44:35.131Z,1004.90
2022-11-05T09:45:35.163Z,1004.89
2022-11-05T09:46:35.134Z,1004.88
2022-11-05T09:47:35.323Z,1004.90
2022-11-05T09:48:35.103Z,1004.93
2022-11-05T09:49:38.103Z,1004.94
2022-11-05T09:50:36.087Z,1004.98
2022-11-05T09:51:35.056Z,1005.01
2022-11-05T09:52:35.294Z,1004.99
2022-11-05T09:53:38.316Z,1005.01
2022-11-05T09:54:35.050Z,1005.03
2022-11-05T09:55:35.030Z,1005.04
2022-11-05T09:56:42.209Z,1005.05
2022-11-05T09:57:35.255Z,1005.08
2022-11-05T09:58:34.984Z,1005.08
2022-11-05T09:59:34.986Z,1005.09
2022-11-05T10:00:35.207Z,1005.11
2022-11-05T10:01:36.102Z,1005.09
2022-11-05T10:02:35.255Z,1005.12
2022-11-05T10:03:37.974Z,1005.10
2022-11-05T10:04:38.213Z,1005.16
2022-11-05T10:05:34.963Z,1005.16
2022-11-05T10:06:35.947Z,1005.17
2022-11-05T10:07:34.921Z,1005.21
2022-11-05T10:08:34.876Z,1005.22
2022-11-05T10:09:35.872Z,1005.21
2022-11-05T10:10:40.302Z,1005.23
2022-11-05T10:11:35.857Z,1005.26
2022-11-05T10:12:34.892Z,1005.30
2022-11-05T10:13:37.851Z,1005.30
2022-11-05T10:14:37.849Z,1005.36
2022-11-05T10:15:35.818Z,1005.37
2022-11-05T10:16:35.005Z,1005.40
2022-11-05T10:17:38.885Z,1005.36
2022-11-05T10:18:41.846Z,1005.42
2022-11-05T10:19:36.033Z,1005.39
2022-11-05T10:20:34.987Z,1005.42
2022-11-05T10:22:04.276Z,1005.43
2022-11-05T10:22:35.742Z,1005.38
2022-11-05T10:23:37.748Z,1005.43
2022-11-05T10:24:41.784Z,1005.43
2022-11-05T10:25:34.693Z,1005.45
2022-11-05T10:26:34.703Z,1005.47
2022-11-05T10:27:34.709Z,1005.48
2022-11-05T10:28:35.667Z,1005.47
2022-11-05T10:29:34.663Z,1005.48
2022-11-05T10:30:37.690Z,1005.49
2022-11-05T10:31:35.920Z,1005.46
2022-11-05T10:32:34.673Z,1005.49
2022-11-05T10:33:34.629Z,1005.52
2022-11-05T10:34:34.603Z,1005.52
2022-11-05T10:35:34.613Z,1005.53
2022-11-05T10:36:37.632Z,1005.52
2022-11-05T10:37:39.582Z,1005.50
2022-11-05T10:38:36.821Z,1005.52
2022-11-05T10:39:34.577Z,1005.49
2022-11-05T10:40:37.588Z,1005.52
2022-11-05T10:41:41.898Z,1005.49
2022-11-05T10:42:34.537Z,1005.48
2022-11-05T10:43:34.755Z,1005.43
2022-11-05T10:44:35.517Z,1005.40
2022-11-05T10:45:34.492Z,1005.37
2022-11-05T10:46:34.476Z,1005.37
2022-11-05T10:47:34.495Z,1005.41
2022-11-05T10:48:37.025Z,1005.38
2022-11-05T10:49:35.682Z,1005.42
2022-11-05T10:50:37.462Z,1005.39
2022-11-05T10:51:34.419Z,1005.43
2022-11-05T10:52:34.644Z,1005.40
2022-11-05T10:53:34.438Z,1005.41
2022-11-05T10:54:34.661Z,1005.45
2022-11-05T10:55:35.446Z,1005.45
2022-11-05T10:56:34.594Z,1005.46
2022-11-05T10:57:34.360Z,1005.48
2022-11-05T10:58:34.377Z,1005.47
2022-11-05T10:59:34.353Z,1005.49
2022-11-05T11:00:34.321Z,1005.51
2022-11-05T11:01:37.785Z,1005.51
2022-11-05T11:02:34.344Z,1005.50
2022-11-05T11:03:34.348Z,1005.47
2022-11-05T11:04:41.714Z,1005.52
2022-11-05T11:05:34.288Z,1005.50
2022-11-05T11:06:37.287Z,1005.45
2022-11-05T11:07:34.268Z,1005.46
2022-11-05T11:08:34.255Z,1005.45
2022-11-05T11:09:35.240Z,1005.42
2022-11-05T11:10:34.248Z,1005.46
2022-11-05T11:11:34.225Z,1005.42
2022-11-05T11:12:38.291Z,1005.45
2022-11-05T11:13:35.220Z,1005.42
2022-11-05T11:14:34.409Z,1005.42
2022-11-05T11:15:35.200Z,1005.47
2022-11-05T11:16:34.175Z,1005.46
2022-11-05T11:17:34.159Z,1005.50
2022-11-05T11:18:39.767Z,1005.53
2022-11-05T11:19:35.138Z,1005.50
2022-11-05T11:20:34.364Z,1005.52
2022-11-05T11:21:37.159Z,1005.55
2022-11-05T11:22:34.118Z,1005.56
2022-11-05T11:23:35.327Z,1005.55
2022-11-05T11:24:34.309Z,1005.52
2022-11-05T11:25:34.071Z,1005.48
2022-11-05T11:26:34.046Z,1005.52
2022-11-05T11:27:35.301Z,1005.54
2022-11-05T11:28:34.270Z,1005.53
2022-11-05T11:29:34.274Z,1005.52
2022-11-05T11:30:49.459Z,1005.52
2022-11-05T11:31:37.058Z,1005.49
2022-11-05T11:32:34.230Z,1005.50
2022-11-05T11:33:37.265Z,1005.47
2022-11-05T11:34:34.234Z,1005.45
2022-11-05T11:35:34.225Z,1005.43
2022-11-05T11:36:33.970Z,1005.39
2022-11-05T11:37:34.977Z,1005.42
2022-11-05T11:38:33.958Z,1005.41
2022-11-05T11:39:33.940Z,1005.44
2022-11-05T11:40:36.944Z,1005.44
2022-11-05T11:41:36.940Z,1005.41
2022-11-05T11:42:33.897Z,1005.43
2022-11-05T11:43:36.920Z,1005.42
2022-11-05T11:44:36.909Z,1005.43
2022-11-05T11:45:33.897Z,1005.42
2022-11-05T11:46:34.843Z,1005.42
2022-11-05T11:47:33.835Z,1005.41
2022-11-05T11:48:33.827Z,1005.44
2022-11-05T11:49:33.868Z,1005.46
2022-11-05T11:50:33.823Z,1005.44
2022-11-05T11:51:34.822Z,1005.29
2022-11-05T11:52:33.774Z,1005.37
2022-11-05T11:53:33.798Z,1005.39
2022-11-05T11:54:37.041Z,1005.31
2022-11-05T11:55:33.776Z,1005.37
2022-11-05T11:56:34.743Z,1005.36
2022-11-05T11:57:33.739Z,1005.35
2022-11-05T11:59:10.034Z,1005.36
2022-11-05T12:00:06.585Z,1005.35
2022-11-05T12:00:34.974Z,1005.38
2022-11-05T12:01:33.747Z,1005.35
2022-11-05T12:02:33.721Z,1005.37
2022-11-05T12:03:34.688Z,1005.35
2022-11-05T12:04:33.676Z,1005.35
2022-11-05T12:05:33.886Z,1005.35
2022-11-05T12:06:33.673Z,1005.34
2022-11-05T12:07:33.662Z,1005.30